Date,TemperatureHighF,TemperatureAvgF,TemperatureLowF,DewpointHighF,DewpointAvgF,DewpointLowF,HumidityHigh,HumidityAvg,HumidityLow,PressureMaxIn,PressureMinIn,WindSpeedMaxMPH,WindSpeedAvgMPH,GustSpeedMaxMPH,PrecipitationSumIn
2013-7-1,79.7,71.8,61.2,54.9,49.3,44.9,69,47,32,29.06,29.00,10,1,10,0.00
2013-7-2,82.6,72.0,62.2,61.8,54.6,47.6,71,56,34,29.06,28.94,11,0,11,0.00
2013-7-3,78.8,70.5,60.4,61.6,57.4,53.2,80,64,44,28.97,28.88,0,0,0,0.00
2013-7-4,85.1,75.1,63.9,61.3,58.3,55.8,78,58,39,28.94,28.85,7,0,7,0.00
2013-7-5,87.3,78.1,66.9,63.8,59.2,55.5,68,53,40,28.91,28.79,9,0,9,0.00
2013-7-6,89.4,80.6,70.5,67.9,62.4,58.2,65,55,41,28.88,28.76,8,0,8,0.00
2013-7-7,90.7,82.6,73.2,70.5,65.9,61.6,71,58,44,28.85,28.79,10,1,10,0.00
2013-7-8,88.3,83.0,78.1,74.8,70.2,65.1,77,66,57,28.88,28.82,4,0,4,0.00
2013-7-9,91.0,82.9,76.6,77.1,73.3,69.2,84,73,59,28.88,28.79,9,0,9,0.00
2013-7-10,84.0,78.5,71.6,73.6,57.9,49.0,71,51,32,28.97,28.82,7,0,7,0.00
2013-7-11,83.3,73.5,65.8,59.8,56.0,53.4,70,55,36,29.03,28.94,7,0,8,0.00
2013-7-12,85.3,77.1,66.7,60.5,58.3,55.3,69,53,40,29.00,28.91,11,1,11,0.00
2013-7-13,81.1,75.0,68.7,64.5,58.7,52.2,65,57,52,28.97,28.91,8,0,8,0.00
2013-7-14,85.8,78.1,68.5,64.3,60.8,58.5,72,57,40,29.09,28.97,7,0,7,0.00
2013-7-15,88.0,79.9,70.5,70.8,66.3,60.6,76,64,50,29.15,29.06,11,0,11,0.00
2013-7-16,92.5,84.4,75.2,72.1,69.3,66.6,79,62,44,29.18,29.09,6,0,6,0.00
2013-7-17,94.3,84.9,76.1,74.9,69.4,65.6,77,61,40,29.21,29.09,8,0,8,0.00
2013-7-18,93.6,85.5,76.6,72.3,68.0,63.7,77,58,38,29.12,28.85,13,1,13,0.00
2013-7-19,92.5,85.5,78.4,71.4,66.2,59.4,64,53,38,28.85,28.73,10,0,10,0.00
2013-7-20,87.6,80.0,69.4,63.8,59.3,54.0,71,51,33,28.88,28.79,0,0,0,0.00
2013-7-21,78.8,74.8,70.2,69.1,65.0,60.2,83,72,59,28.85,28.70,6,0,6,0.00
2013-7-22,90.9,79.3,68.7,73.4,67.7,59.0,85,69,47,28.79,28.64,15,1,15,0.00
2013-7-23,76.6,71.2,67.6,63.9,58.7,52.9,81,65,51,28.91,28.73,8,0,10,0.00
2013-7-24,78.3,71.2,61.9,59.2,56.1,52.8,80,60,42,28.97,28.91,5,0,5,0.00
2013-7-25,84.6,75.2,64.9,65.5,61.8,56.9,77,64,47,28.97,28.88,11,0,11,0.00
2013-7-26,77.2,72.5,64.2,67.2,57.1,47.9,86,60,39,28.97,28.85,13,1,13,0.00
2013-7-27,69.6,64.3,58.1,52.9,46.4,41.6,72,54,38,29.00,28.91,12,0,12,0.00
2013-7-28,73.9,64.6,53.6,51.6,46.4,43.7,71,53,35,28.97,28.91,8,0,8,0.00
2013-7-29,74.1,67.7,58.6,60.2,54.4,50.0,79,63,47,29.03,28.97,6,0,6,0.00
2013-7-30,71.1,67.6,65.5,66.3,63.8,60.0,94,88,79,29.00,28.94,2,0,2,0.00